sensor_id;sensor_type;location;lat;lon;timestamp;temperature;humidity
22249;DHT22;67538;52.180;5.646;2023-11-21T00:01:21;5.80;99.90
22249;DHT22;67538;52.180;5.646;2023-11-21T00:03:47;5.70;99.90
22249;DHT22;67538;52.180;5.646;2023-11-21T00:06:15;5.60;99.90
22249;DHT22;67538;52.180;5.646;2023-11-21T00:08:44;5.60;99.90
22249;DHT22;67538;52.180;5.646;2023-11-21T00:11:11;5.60;99.90
22249;DHT22;67538;52.180;5.646;2023-11-21T00:13:38;5.60;99.90
22249;DHT22;67538;52.180;5.646;2023-11-21T00:16:05;5.60;99.90
22249;DHT22;67538;52.180;5.646;2023-11-21T00:18:33;5.50;99.90
22249;DHT22;67538;52.180;5.646;2023-11-21T00:21:00;5.50;99.90
22249;DHT22;67538;52.180;5.646;2023-11-21T00:23:27;5.50;99.90
22249;DHT22;67538;52.180;5.646;2023-11-21T00:25:55;5.50;99.90
22249;DHT22;67538;52.180;5.646;2023-11-21T00:28:22;5.50;99.90
22249;DHT22;67538;52.180;5.646;2023-11-21T00:30:49;5.50;99.90
22249;DHT22;67538;52.180;5.646;2023-11-21T00:33:16;5.50;99.90
22249;DHT22;67538;52.180;5.646;2023-11-21T00:35:43;5.60;99.90
22249;DHT22;67538;52.180;5.646;2023-11-21T00:38:10;5.60;99.90
22249;DHT22;67538;52.180;5.646;2023-11-21T00:40:37;5.60;99.90
22249;DHT22;67538;52.180;5.646;2023-11-21T00:43:06;5.60;99.90
22249;DHT22;67538;52.180;5.646;2023-11-21T00:45:33;5.70;99.90
22249;DHT22;67538;52.180;5.646;2023-11-21T00:48:01;5.70;99.90
22249;DHT22;67538;52.180;5.646;2023-11-21T00:50:28;5.70;99.90
22249;DHT22;67538;52.180;5.646;2023-11-21T00:52:55;5.70;99.90
22249;DHT22;67538;52.180;5.646;2023-11-21T00:55:22;5.60;99.90
22249;DHT22;67538;52.180;5.646;2023-11-21T00:57:50;5.60;99.90
22249;DHT22;67538;52.180;5.646;2023-11-21T01:00:19;5.60;99.90
22249;DHT22;67538;52.180;5.646;2023-11-21T01:02:46;5.70;99.90
22249;DHT22;67538;52.180;5.646;2023-11-21T01:05:14;5.80;99.90
22249;DHT22;67538;52.180;5.646;2023-11-21T01:07:41;5.80;99.90
22249;DHT22;67538;52.180;5.646;2023-11-21T01:10:09;5.90;99.90
22249;DHT22;67538;52.180;5.646;2023-11-21T01:12:36;5.90;99.90
22249;DHT22;67538;52.180;5.646;2023-11-21T01:15:05;5.90;99.90
22249;DHT22;67538;52.180;5.646;2023-11-21T01:17:35;5.90;99.90
22249;DHT22;67538;52.180;5.646;2023-11-21T01:20:03;5.90;99.90
22249;DHT22;67538;52.180;5.646;2023-11-21T01:22:32;5.90;99.90
22249;DHT22;67538;52.180;5.646;2023-11-21T01:24:59;5.90;99.90
22249;DHT22;67538;52.180;5.646;2023-11-21T01:27:26;5.90;99.90
22249;DHT22;67538;52.180;5.646;2023-11-21T01:29:52;5.90;99.90
22249;DHT22;67538;52.180;5.646;2023-11-21T01:32:20;5.90;99.90
22249;DHT22;67538;52.180;5.646;2023-11-21T01:34:50;6.00;99.90
22249;DHT22;67538;52.180;5.646;2023-11-21T01:37:17;6.00;99.90
22249;DHT22;67538;52.180;5.646;2023-11-21T01:39:44;6.00;99.90
22249;DHT22;67538;52.180;5.646;2023-11-21T01:42:12;6.10;99.90
22249;DHT22;67538;52.180;5.646;2023-11-21T01:44:39;6.10;99.90
22249;DHT22;67538;52.180;5.646;2023-11-21T01:47:07;6.20;99.90
22249;DHT22;67538;52.180;5.646;2023-11-21T01:49:35;6.20;99.90
22249;DHT22;67538;52.180;5.646;2023-11-21T01:52:04;6.20;99.90
22249;DHT22;67538;52.180;5.646;2023-11-21T01:54:32;6.20;99.90
22249;DHT22;67538;52.180;5.646;2023-11-21T01:56:59;6.20;99.90
22249;DHT22;67538;52.180;5.646;2023-11-21T01:59:34;6.30;99.90
22249;DHT22;67538;52.180;5.646;2023-11-21T02:02:02;6.30;99.90
22249;DHT22;67538;52.180;5.646;2023-11-21T02:04:30;6.40;99.90
22249;DHT22;67538;52.180;5.646;2023-11-21T02:06:58;6.40;99.90
22249;DHT22;67538;52.180;5.646;2023-11-21T02:09:27;6.40;99.90
22249;DHT22;67538;52.180;5.646;2023-11-21T02:11:55;6.50;99.90
22249;DHT22;67538;52.180;5.646;2023-11-21T02:14:24;6.50;99.90
22249;DHT22;67538;52.180;5.646;2023-11-21T02:16:53;6.50;99.90
22249;DHT22;67538;52.180;5.646;2023-11-21T02:19:21;6.60;99.90
22249;DHT22;67538;52.180;5.646;2023-11-21T02:21:51;6.60;99.90
22249;DHT22;67538;52.180;5.646;2023-11-21T02:24:20;6.60;99.90
22249;DHT22;67538;52.180;5.646;2023-11-21T02:26:48;6.60;99.90
22249;DHT22;67538;52.180;5.646;2023-11-21T02:29:17;6.60;99.90
22249;DHT22;67538;52.180;5.646;2023-11-21T02:31:45;6.70;99.90
22249;DHT22;67538;52.180;5.646;2023-11-21T02:34:14;6.80;99.90
22249;DHT22;67538;52.180;5.646;2023-11-21T02:36:42;6.80;99.90
22249;DHT22;67538;52.180;5.646;2023-11-21T02:39:09;6.90;99.90
22249;DHT22;67538;52.180;5.646;2023-11-21T02:41:38;7.00;99.90
22249;DHT22;67538;52.180;5.646;2023-11-21T02:44:06;7.00;99.90
22249;DHT22;67538;52.180;5.646;2023-11-21T02:46:33;7.10;99.90
22249;DHT22;67538;52.180;5.646;2023-11-21T02:49:00;7.10;99.90
22249;DHT22;67538;52.180;5.646;2023-11-21T02:51:28;7.10;99.90
22249;DHT22;67538;52.180;5.646;2023-11-21T02:53:55;7.20;99.90
22249;DHT22;67538;52.180;5.646;2023-11-21T02:56:24;7.20;99.90
22249;DHT22;67538;52.180;5.646;2023-11-21T02:58:55;7.30;99.90
22249;DHT22;67538;52.180;5.646;2023-11-21T03:01:22;7.40;99.90
22249;DHT22;67538;52.180;5.646;2023-11-21T03:03:50;7.40;99.90
22249;DHT22;67538;52.180;5.646;2023-11-21T03:06:18;7.40;99.90
22249;DHT22;67538;52.180;5.646;2023-11-21T03:08:45;7.50;99.90
22249;DHT22;67538;52.180;5.646;2023-11-21T03:11:12;7.40;99.90
22249;DHT22;67538;52.180;5.646;2023-11-21T03:13:40;7.50;99.90
22249;DHT22;67538;52.180;5.646;2023-11-21T03:16:09;7.50;99.90
22249;DHT22;67538;52.180;5.646;2023-11-21T03:18:37;7.60;99.90
22249;DHT22;67538;52.180;5.646;2023-11-21T03:21:05;7.60;99.90
22249;DHT22;67538;52.180;5.646;2023-11-21T03:23:34;7.60;99.90
22249;DHT22;67538;52.180;5.646;2023-11-21T03:26:01;7.60;99.90
22249;DHT22;67538;52.180;5.646;2023-11-21T03:28:28;7.60;99.90
22249;DHT22;67538;52.180;5.646;2023-11-21T03:30:55;7.60;99.90
22249;DHT22;67538;52.180;5.646;2023-11-21T03:33:24;7.60;99.90
22249;DHT22;67538;52.180;5.646;2023-11-21T03:35:51;7.60;99.90
22249;DHT22;67538;52.180;5.646;2023-11-21T03:38:18;7.60;99.90
22249;DHT22;67538;52.180;5.646;2023-11-21T03:40:46;7.70;99.90
22249;DHT22;67538;52.180;5.646;2023-11-21T03:43:13;7.70;99.90
22249;DHT22;67538;52.180;5.646;2023-11-21T03:45:40;7.70;99.90
22249;DHT22;67538;52.180;5.646;2023-11-21T03:48:07;7.60;99.90
22249;DHT22;67538;52.180;5.646;2023-11-21T03:50:36;7.70;99.90
22249;DHT22;67538;52.180;5.646;2023-11-21T03:53:03;7.70;99.90
22249;DHT22;67538;52.180;5.646;2023-11-21T03:55:30;7.70;99.90
22249;DHT22;67538;52.180;5.646;2023-11-21T03:57:57;7.70;99.90
22249;DHT22;67538;52.180;5.646;2023-11-21T04:00:25;7.70;99.90
22249;DHT22;67538;52.180;5.646;2023-11-21T04:02:52;7.70;99.90
22249;DHT22;67538;52.180;5.646;2023-11-21T04:05:20;7.80;99.90
22249;DHT22;67538;52.180;5.646;2023-11-21T04:07:50;7.80;99.90
22249;DHT22;67538;52.180;5.646;2023-11-21T04:10:18;7.80;99.90
22249;DHT22;67538;52.180;5.646;2023-11-21T04:12:45;7.80;99.90
22249;DHT22;67538;52.180;5.646;2023-11-21T04:15:12;7.80;99.90
22249;DHT22;67538;52.180;5.646;2023-11-21T04:17:40;7.80;99.90
22249;DHT22;67538;52.180;5.646;2023-11-21T04:20:07;7.90;99.90
22249;DHT22;67538;52.180;5.646;2023-11-21T04:22:36;7.90;99.90
22249;DHT22;67538;52.180;5.646;2023-11-21T04:25:08;7.90;99.90
22249;DHT22;67538;52.180;5.646;2023-11-21T04:27:36;7.90;99.90
22249;DHT22;67538;52.180;5.646;2023-11-21T04:30:03;7.90;99.90
22249;DHT22;67538;52.180;5.646;2023-11-21T04:32:31;7.90;99.90
22249;DHT22;67538;52.180;5.646;2023-11-21T04:34:58;7.90;99.90
22249;DHT22;67538;52.180;5.646;2023-11-21T04:37:25;7.90;99.90
22249;DHT22;67538;52.180;5.646;2023-11-21T04:39:52;7.90;99.90
22249;DHT22;67538;52.180;5.646;2023-11-21T04:42:20;8.00;99.90
22249;DHT22;67538;52.180;5.646;2023-11-21T04:44:47;8.00;99.90
22249;DHT22;67538;52.180;5.646;2023-11-21T04:47:14;8.00;99.90
22249;DHT22;67538;52.180;5.646;2023-11-21T04:49:42;8.10;99.90
22249;DHT22;67538;52.180;5.646;2023-11-21T04:52:10;8.10;99.90
22249;DHT22;67538;52.180;5.646;2023-11-21T04:54:37;8.10;99.90
22249;DHT22;67538;52.180;5.646;2023-11-21T04:57:05;8.10;99.90
22249;DHT22;67538;52.180;5.646;2023-11-21T04:59:34;8.10;99.90
22249;DHT22;67538;52.180;5.646;2023-11-21T05:02:01;8.10;99.90
22249;DHT22;67538;52.180;5.646;2023-11-21T05:04:28;8.10;99.90
22249;DHT22;67538;52.180;5.646;2023-11-21T05:06:55;8.10;99.90
22249;DHT22;67538;52.180;5.646;2023-11-21T05:09:22;8.10;99.90
22249;DHT22;67538;52.180;5.646;2023-11-21T05:11:49;8.10;99.90
22249;DHT22;67538;52.180;5.646;2023-11-21T05:14:16;8.20;99.90
22249;DHT22;67538;52.180;5.646;2023-11-21T05:16:45;8.20;99.90
22249;DHT22;67538;52.180;5.646;2023-11-21T05:19:12;8.20;99.90
22249;DHT22;67538;52.180;5.646;2023-11-21T05:21:39;8.20;99.90
22249;DHT22;67538;52.180;5.646;2023-11-21T05:24:07;8.20;99.90
22249;DHT22;67538;52.180;5.646;2023-11-21T05:26:34;8.20;99.90
22249;DHT22;67538;52.180;5.646;2023-11-21T05:29:01;8.30;99.90
22249;DHT22;67538;52.180;5.646;2023-11-21T05:31:29;8.30;99.90
22249;DHT22;67538;52.180;5.646;2023-11-21T05:33:57;8.30;99.90
22249;DHT22;67538;52.180;5.646;2023-11-21T05:36:24;8.30;99.90
22249;DHT22;67538;52.180;5.646;2023-11-21T05:38:51;8.30;99.90
22249;DHT22;67538;52.180;5.646;2023-11-21T05:41:18;8.30;99.90
22249;DHT22;67538;52.180;5.646;2023-11-21T05:43:46;8.30;99.90
22249;DHT22;67538;52.180;5.646;2023-11-21T05:46:12;8.40;99.90
22249;DHT22;67538;52.180;5.646;2023-11-21T05:48:40;8.40;99.90
22249;DHT22;67538;52.180;5.646;2023-11-21T05:51:09;8.40;99.90
22249;DHT22;67538;52.180;5.646;2023-11-21T05:53:38;8.40;99.90
22249;DHT22;67538;52.180;5.646;2023-11-21T05:56:05;8.40;99.90
22249;DHT22;67538;52.180;5.646;2023-11-21T05:58:33;8.40;99.90
22249;DHT22;67538;52.180;5.646;2023-11-21T06:01:00;8.40;99.90
22249;DHT22;67538;52.180;5.646;2023-11-21T06:03:27;8.50;99.90
22249;DHT22;67538;52.180;5.646;2023-11-21T06:05:54;8.50;99.90
22249;DHT22;67538;52.180;5.646;2023-11-21T06:08:22;8.50;99.90
22249;DHT22;67538;52.180;5.646;2023-11-21T06:10:50;8.50;99.90
22249;DHT22;67538;52.180;5.646;2023-11-21T06:13:17;8.50;99.90
22249;DHT22;67538;52.180;5.646;2023-11-21T06:15:46;8.50;99.90
22249;DHT22;67538;52.180;5.646;2023-11-21T06:18:13;8.50;99.90
22249;DHT22;67538;52.180;5.646;2023-11-21T06:20:40;8.50;99.90
22249;DHT22;67538;52.180;5.646;2023-11-21T06:23:07;8.50;99.90
22249;DHT22;67538;52.180;5.646;2023-11-21T06:25:36;8.50;99.90
22249;DHT22;67538;52.180;5.646;2023-11-21T06:28:03;8.60;99.90
22249;DHT22;67538;52.180;5.646;2023-11-21T06:30:30;8.60;99.90
22249;DHT22;67538;52.180;5.646;2023-11-21T06:32:57;8.70;99.90
22249;DHT22;67538;52.180;5.646;2023-11-21T06:35:25;8.70;99.90
22249;DHT22;67538;52.180;5.646;2023-11-21T06:37:53;8.70;99.90
22249;DHT22;67538;52.180;5.646;2023-11-21T06:40:20;8.70;99.90
22249;DHT22;67538;52.180;5.646;2023-11-21T06:42:48;8.70;99.90
22249;DHT22;67538;52.180;5.646;2023-11-21T06:45:16;8.70;99.90
22249;DHT22;67538;52.180;5.646;2023-11-21T06:47:43;8.70;99.90
22249;DHT22;67538;52.180;5.646;2023-11-21T06:50:10;8.70;99.90
22249;DHT22;67538;52.180;5.646;2023-11-21T06:52:37;8.70;99.90
22249;DHT22;67538;52.180;5.646;2023-11-21T06:55:06;8.70;99.90
22249;DHT22;67538;52.180;5.646;2023-11-21T06:57:33;8.70;99.90
22249;DHT22;67538;52.180;5.646;2023-11-21T07:00:02;8.70;99.90
22249;DHT22;67538;52.180;5.646;2023-11-21T07:02:30;8.70;99.90
22249;DHT22;67538;52.180;5.646;2023-11-21T07:04:57;8.70;99.90
22249;DHT22;67538;52.180;5.646;2023-11-21T07:07:24;8.70;99.90
22249;DHT22;67538;52.180;5.646;2023-11-21T07:09:51;8.80;99.90
22249;DHT22;67538;52.180;5.646;2023-11-21T07:12:18;8.80;99.90
22249;DHT22;67538;52.180;5.646;2023-11-21T07:14:45;8.80;99.90
22249;DHT22;67538;52.180;5.646;2023-11-21T07:17:13;8.80;99.90
22249;DHT22;67538;52.180;5.646;2023-11-21T07:19:40;8.80;99.90
22249;DHT22;67538;52.180;5.646;2023-11-21T07:22:07;8.80;99.90
22249;DHT22;67538;52.180;5.646;2023-11-21T07:24:34;8.80;99.90
22249;DHT22;67538;52.180;5.646;2023-11-21T07:27:02;8.80;99.90
22249;DHT22;67538;52.180;5.646;2023-11-21T07:29:30;8.80;99.90
22249;DHT22;67538;52.180;5.646;2023-11-21T07:31:57;8.90;99.90
22249;DHT22;67538;52.180;5.646;2023-11-21T07:34:25;8.80;99.90
22249;DHT22;67538;52.180;5.646;2023-11-21T07:36:52;8.90;99.90
22249;DHT22;67538;52.180;5.646;2023-11-21T07:39:19;8.90;99.90
22249;DHT22;67538;52.180;5.646;2023-11-21T07:41:46;8.90;99.90
22249;DHT22;67538;52.180;5.646;2023-11-21T07:44:16;8.90;99.90
22249;DHT22;67538;52.180;5.646;2023-11-21T07:46:45;8.90;99.90
22249;DHT22;67538;52.180;5.646;2023-11-21T07:49:12;8.90;99.90
22249;DHT22;67538;52.180;5.646;2023-11-21T07:51:43;9.00;99.90
22249;DHT22;67538;52.180;5.646;2023-11-21T07:54:10;9.00;99.90
22249;DHT22;67538;52.180;5.646;2023-11-21T07:56:37;9.00;99.90
22249;DHT22;67538;52.180;5.646;2023-11-21T07:59:04;9.00;99.90
22249;DHT22;67538;52.180;5.646;2023-11-21T08:01:31;9.00;99.90
22249;DHT22;67538;52.180;5.646;2023-11-21T08:03:58;9.00;99.90
22249;DHT22;67538;52.180;5.646;2023-11-21T08:06:29;9.10;99.90
22249;DHT22;67538;52.180;5.646;2023-11-21T08:08:57;9.10;99.90
22249;DHT22;67538;52.180;5.646;2023-11-21T08:11:24;9.10;99.90
22249;DHT22;67538;52.180;5.646;2023-11-21T08:13:52;9.20;99.90
22249;DHT22;67538;52.180;5.646;2023-11-21T08:16:19;9.20;99.90
22249;DHT22;67538;52.180;5.646;2023-11-21T08:18:46;9.30;99.90
22249;DHT22;67538;52.180;5.646;2023-11-21T08:21:13;9.30;99.90
22249;DHT22;67538;52.180;5.646;2023-11-21T08:23:40;9.30;99.90
22249;DHT22;67538;52.180;5.646;2023-11-21T08:26:08;9.40;99.90
22249;DHT22;67538;52.180;5.646;2023-11-21T08:28:35;9.40;99.90
22249;DHT22;67538;52.180;5.646;2023-11-21T08:31:02;9.30;99.90
22249;DHT22;67538;52.180;5.646;2023-11-21T08:33:30;9.30;99.90
22249;DHT22;67538;52.180;5.646;2023-11-21T08:35:57;9.30;99.90
22249;DHT22;67538;52.180;5.646;2023-11-21T08:38:24;9.30;99.90
22249;DHT22;67538;52.180;5.646;2023-11-21T08:40:51;9.30;99.90
22249;DHT22;67538;52.180;5.646;2023-11-21T08:43:19;9.30;99.90
22249;DHT22;67538;52.180;5.646;2023-11-21T08:45:46;9.30;99.90
22249;DHT22;67538;52.180;5.646;2023-11-21T08:48:13;9.30;99.90
22249;DHT22;67538;52.180;5.646;2023-11-21T08:50:40;9.30;99.90
22249;DHT22;67538;52.180;5.646;2023-11-21T08:53:07;9.40;99.90
22249;DHT22;67538;52.180;5.646;2023-11-21T08:55:36;9.40;99.90
22249;DHT22;67538;52.180;5.646;2023-11-21T08:58:03;9.50;99.90
22249;DHT22;67538;52.180;5.646;2023-11-21T09:00:33;9.50;99.90
22249;DHT22;67538;52.180;5.646;2023-11-21T09:03:01;9.50;99.90
22249;DHT22;67538;52.180;5.646;2023-11-21T09:05:29;9.60;99.90
22249;DHT22;67538;52.180;5.646;2023-11-21T09:07:56;9.60;99.90
22249;DHT22;67538;52.180;5.646;2023-11-21T09:10:23;9.70;99.90
22249;DHT22;67538;52.180;5.646;2023-11-21T09:12:51;9.80;99.90
22249;DHT22;67538;52.180;5.646;2023-11-21T09:15:18;10.00;99.90
22249;DHT22;67538;52.180;5.646;2023-11-21T09:17:47;10.10;99.90
22249;DHT22;67538;52.180;5.646;2023-11-21T09:20:14;10.10;99.90
22249;DHT22;67538;52.180;5.646;2023-11-21T09:22:41;10.10;99.90
22249;DHT22;67538;52.180;5.646;2023-11-21T09:25:10;10.20;99.90
22249;DHT22;67538;52.180;5.646;2023-11-21T09:27:38;10.30;99.90
22249;DHT22;67538;52.180;5.646;2023-11-21T09:30:06;10.30;99.90
22249;DHT22;67538;52.180;5.646;2023-11-21T09:32:35;10.30;99.90
22249;DHT22;67538;52.180;5.646;2023-11-21T09:35:05;10.30;99.90
22249;DHT22;67538;52.180;5.646;2023-11-21T09:37:34;10.30;99.90
22249;DHT22;67538;52.180;5.646;2023-11-21T09:40:01;10.30;99.90
22249;DHT22;67538;52.180;5.646;2023-11-21T09:42:35;10.20;99.90
22249;DHT22;67538;52.180;5.646;2023-11-21T09:45:05;10.20;99.90
22249;DHT22;67538;52.180;5.646;2023-11-21T09:47:35;10.20;99.90
22249;DHT22;67538;52.180;5.646;2023-11-21T09:50:05;10.20;99.90
22249;DHT22;67538;52.180;5.646;2023-11-21T09:52:41;10.10;99.90
22249;DHT22;67538;52.180;5.646;2023-11-21T09:55:13;10.10;99.90
22249;DHT22;67538;52.180;5.646;2023-11-21T09:57:45;10.00;99.90
22249;DHT22;67538;52.180;5.646;2023-11-21T10:00:14;10.00;99.90
22249;DHT22;67538;52.180;5.646;2023-11-21T10:02:43;10.10;99.90
22249;DHT22;67538;52.180;5.646;2023-11-21T10:05:12;10.10;99.90
22249;DHT22;67538;52.180;5.646;2023-11-21T10:07:39;10.10;99.90
22249;DHT22;67538;52.180;5.646;2023-11-21T10:10:09;10.10;99.90
22249;DHT22;67538;52.180;5.646;2023-11-21T10:12:36;10.10;99.90
22249;DHT22;67538;52.180;5.646;2023-11-21T10:15:08;10.10;99.90
22249;DHT22;67538;52.180;5.646;2023-11-21T10:17:38;10.00;99.90
22249;DHT22;67538;52.180;5.646;2023-11-21T10:20:12;10.00;99.90
22249;DHT22;67538;52.180;5.646;2023-11-21T10:22:40;10.00;99.90
22249;DHT22;67538;52.180;5.646;2023-11-21T10:25:08;10.00;99.90
22249;DHT22;67538;52.180;5.646;2023-11-21T10:27:35;9.90;99.90
22249;DHT22;67538;52.180;5.646;2023-11-21T10:30:05;9.90;99.90
22249;DHT22;67538;52.180;5.646;2023-11-21T10:32:33;10.00;99.90
22249;DHT22;67538;52.180;5.646;2023-11-21T10:35:00;10.00;99.90
22249;DHT22;67538;52.180;5.646;2023-11-21T10:37:33;10.10;99.90
22249;DHT22;67538;52.180;5.646;2023-11-21T10:40:00;10.20;99.90
22249;DHT22;67538;52.180;5.646;2023-11-21T10:42:27;10.20;99.90
22249;DHT22;67538;52.180;5.646;2023-11-21T10:44:55;10.20;99.90
22249;DHT22;67538;52.180;5.646;2023-11-21T10:47:22;10.20;99.90
22249;DHT22;67538;52.180;5.646;2023-11-21T10:49:49;10.20;99.90
22249;DHT22;67538;52.180;5.646;2023-11-21T10:52:19;10.20;99.90
22249;DHT22;67538;52.180;5.646;2023-11-21T10:54:47;10.10;99.90
22249;DHT22;67538;52.180;5.646;2023-11-21T10:57:18;10.10;99.90
22249;DHT22;67538;52.180;5.646;2023-11-21T10:59:47;10.10;99.90
22249;DHT22;67538;52.180;5.646;2023-11-21T11:02:23;10.10;99.90
22249;DHT22;67538;52.180;5.646;2023-11-21T11:04:52;10.10;99.90
22249;DHT22;67538;52.180;5.646;2023-11-21T11:07:21;10.10;99.90
22249;DHT22;67538;52.180;5.646;2023-11-21T11:09:53;10.10;99.90
22249;DHT22;67538;52.180;5.646;2023-11-21T11:12:20;10.10;99.90
22249;DHT22;67538;52.180;5.646;2023-11-21T11:14:48;10.10;99.90
22249;DHT22;67538;52.180;5.646;2023-11-21T11:17:15;10.10;99.90
22249;DHT22;67538;52.180;5.646;2023-11-21T11:19:46;10.10;99.90
22249;DHT22;67538;52.180;5.646;2023-11-21T11:22:24;10.10;99.90
22249;DHT22;67538;52.180;5.646;2023-11-21T11:25:19;10.10;99.90
22249;DHT22;67538;52.180;5.646;2023-11-21T11:27:54;10.10;99.90
22249;DHT22;67538;52.180;5.646;2023-11-21T11:30:34;10.20;99.90
22249;DHT22;67538;52.180;5.646;2023-11-21T11:33:11;10.10;99.90
22249;DHT22;67538;52.180;5.646;2023-11-21T11:35:52;10.10;99.90
22249;DHT22;67538;52.180;5.646;2023-11-21T11:38:21;10.10;99.90
22249;DHT22;67538;52.180;5.646;2023-11-21T11:40:53;10.10;99.90
22249;DHT22;67538;52.180;5.646;2023-11-21T11:43:25;10.10;99.90
22249;DHT22;67538;52.180;5.646;2023-11-21T11:45:55;10.10;99.90
22249;DHT22;67538;52.180;5.646;2023-11-21T11:48:23;10.10;99.90
22249;DHT22;67538;52.180;5.646;2023-11-21T11:51:06;10.10;99.90
22249;DHT22;67538;52.180;5.646;2023-11-21T11:53:38;10.10;99.90
22249;DHT22;67538;52.180;5.646;2023-11-21T11:56:28;10.10;99.90
22249;DHT22;67538;52.180;5.646;2023-11-21T11:58:57;10.10;99.90
22249;DHT22;67538;52.180;5.646;2023-11-21T12:01:25;10.10;99.90
22249;DHT22;67538;52.180;5.646;2023-11-21T12:04:24;10.20;99.90
22249;DHT22;67538;52.180;5.646;2023-11-21T12:06:57;10.20;99.90
22249;DHT22;67538;52.180;5.646;2023-11-21T12:09:26;10.20;99.90
22249;DHT22;67538;52.180;5.646;2023-11-21T12:11:56;10.10;99.90
22249;DHT22;67538;52.180;5.646;2023-11-21T12:14:23;10.20;99.90
22249;DHT22;67538;52.180;5.646;2023-11-21T12:16:51;10.10;99.90
22249;DHT22;67538;52.180;5.646;2023-11-21T12:19:19;10.10;99.90
22249;DHT22;67538;52.180;5.646;2023-11-21T12:21:48;10.10;99.90
22249;DHT22;67538;52.180;5.646;2023-11-21T12:24:16;10.10;99.90
22249;DHT22;67538;52.180;5.646;2023-11-21T12:26:43;10.10;99.90
22249;DHT22;67538;52.180;5.646;2023-11-21T12:29:12;10.20;99.90
22249;DHT22;67538;52.180;5.646;2023-11-21T12:31:39;10.30;99.90
22249;DHT22;67538;52.180;5.646;2023-11-21T12:34:06;10.40;99.90
22249;DHT22;67538;52.180;5.646;2023-11-21T12:36:37;10.40;99.90
22249;DHT22;67538;52.180;5.646;2023-11-21T12:39:04;10.50;99.90
22249;DHT22;67538;52.180;5.646;2023-11-21T12:41:31;10.60;99.90
22249;DHT22;67538;52.180;5.646;2023-11-21T12:43:58;10.60;99.90
22249;DHT22;67538;52.180;5.646;2023-11-21T12:46:27;10.50;99.90
22249;DHT22;67538;52.180;5.646;2023-11-21T12:48:57;10.40;99.90
22249;DHT22;67538;52.180;5.646;2023-11-21T12:51:24;10.40;99.90
22249;DHT22;67538;52.180;5.646;2023-11-21T12:53:52;10.30;99.90
22249;DHT22;67538;52.180;5.646;2023-11-21T12:56:21;10.40;99.90
22249;DHT22;67538;52.180;5.646;2023-11-21T12:58:50;10.40;99.90
22249;DHT22;67538;52.180;5.646;2023-11-21T13:01:20;10.30;99.90
22249;DHT22;67538;52.180;5.646;2023-11-21T13:03:50;10.30;99.90
22249;DHT22;67538;52.180;5.646;2023-11-21T13:06:19;10.30;99.90
22249;DHT22;67538;52.180;5.646;2023-11-21T13:08:50;10.20;99.90
22249;DHT22;67538;52.180;5.646;2023-11-21T13:11:17;10.20;99.90
22249;DHT22;67538;52.180;5.646;2023-11-21T13:13:45;10.20;99.90
22249;DHT22;67538;52.180;5.646;2023-11-21T13:16:12;10.10;99.90
22249;DHT22;67538;52.180;5.646;2023-11-21T13:18:41;10.10;99.90
22249;DHT22;67538;52.180;5.646;2023-11-21T13:21:10;10.20;99.90
22249;DHT22;67538;52.180;5.646;2023-11-21T13:23:39;10.20;99.90
22249;DHT22;67538;52.180;5.646;2023-11-21T13:26:07;10.20;99.90
22249;DHT22;67538;52.180;5.646;2023-11-21T13:28:35;10.20;99.90
22249;DHT22;67538;52.180;5.646;2023-11-21T13:31:03;10.20;99.90
22249;DHT22;67538;52.180;5.646;2023-11-21T13:33:35;10.20;99.90
22249;DHT22;67538;52.180;5.646;2023-11-21T13:36:04;10.10;99.90
22249;DHT22;67538;52.180;5.646;2023-11-21T13:38:34;10.10;99.90
22249;DHT22;67538;52.180;5.646;2023-11-21T13:41:03;10.00;99.90
22249;DHT22;67538;52.180;5.646;2023-11-21T13:43:33;9.90;99.90
22249;DHT22;67538;52.180;5.646;2023-11-21T13:46:00;10.00;99.90
22249;DHT22;67538;52.180;5.646;2023-11-21T13:48:34;10.00;99.90
22249;DHT22;67538;52.180;5.646;2023-11-21T13:51:08;9.90;99.90
22249;DHT22;67538;52.180;5.646;2023-11-21T13:53:43;9.90;99.90
22249;DHT22;67538;52.180;5.646;2023-11-21T13:56:11;9.90;99.90
22249;DHT22;67538;52.180;5.646;2023-11-21T13:58:42;9.80;99.90
22249;DHT22;67538;52.180;5.646;2023-11-21T14:01:13;9.80;99.90
22249;DHT22;67538;52.180;5.646;2023-11-21T14:03:58;9.70;99.90
22249;DHT22;67538;52.180;5.646;2023-11-21T14:06:34;9.60;99.90
22249;DHT22;67538;52.180;5.646;2023-11-21T14:09:12;9.60;99.90
22249;DHT22;67538;52.180;5.646;2023-11-21T14:11:49;9.60;99.90
22249;DHT22;67538;52.180;5.646;2023-11-21T14:14:17;9.60;99.90
22249;DHT22;67538;52.180;5.646;2023-11-21T14:16:44;9.50;99.90
22249;DHT22;67538;52.180;5.646;2023-11-21T14:19:11;9.50;99.90
22249;DHT22;67538;52.180;5.646;2023-11-21T14:21:42;9.50;99.90
22249;DHT22;67538;52.180;5.646;2023-11-21T14:24:11;9.50;99.90
22249;DHT22;67538;52.180;5.646;2023-11-21T14:26:40;9.50;99.90
22249;DHT22;67538;52.180;5.646;2023-11-21T14:29:08;9.50;99.90
22249;DHT22;67538;52.180;5.646;2023-11-21T14:31:38;9.50;99.90
22249;DHT22;67538;52.180;5.646;2023-11-21T14:34:06;9.40;99.90
22249;DHT22;67538;52.180;5.646;2023-11-21T14:36:33;9.50;99.90
22249;DHT22;67538;52.180;5.646;2023-11-21T14:39:02;9.40;99.90
22249;DHT22;67538;52.180;5.646;2023-11-21T14:41:34;9.40;99.90
22249;DHT22;67538;52.180;5.646;2023-11-21T14:44:01;9.30;99.90
22249;DHT22;67538;52.180;5.646;2023-11-21T14:46:29;9.20;99.90
22249;DHT22;67538;52.180;5.646;2023-11-21T14:48:57;9.10;99.90
22249;DHT22;67538;52.180;5.646;2023-11-21T14:51:27;9.00;99.90
22249;DHT22;67538;52.180;5.646;2023-11-21T14:53:57;9.00;99.90
22249;DHT22;67538;52.180;5.646;2023-11-21T14:56:31;8.90;99.90
22249;DHT22;67538;52.180;5.646;2023-11-21T14:59:02;8.90;99.90
22249;DHT22;67538;52.180;5.646;2023-11-21T15:01:32;8.90;99.90
22249;DHT22;67538;52.180;5.646;2023-11-21T15:04:19;8.80;99.90
22249;DHT22;67538;52.180;5.646;2023-11-21T15:06:57;8.80;99.90
22249;DHT22;67538;52.180;5.646;2023-11-21T15:09:24;8.80;99.90
22249;DHT22;67538;52.180;5.646;2023-11-21T15:12:02;8.80;99.90
22249;DHT22;67538;52.180;5.646;2023-11-21T15:14:41;8.70;99.90
22249;DHT22;67538;52.180;5.646;2023-11-21T15:17:08;8.70;99.90
22249;DHT22;67538;52.180;5.646;2023-11-21T15:19:35;8.70;99.90
22249;DHT22;67538;52.180;5.646;2023-11-21T15:22:03;8.70;99.90
22249;DHT22;67538;52.180;5.646;2023-11-21T15:24:32;8.70;99.90
22249;DHT22;67538;52.180;5.646;2023-11-21T15:26:59;8.70;99.90
22249;DHT22;67538;52.180;5.646;2023-11-21T15:29:28;8.60;99.90
22249;DHT22;67538;52.180;5.646;2023-11-21T15:31:57;8.50;99.90
22249;DHT22;67538;52.180;5.646;2023-11-21T15:34:24;8.40;99.90
22249;DHT22;67538;52.180;5.646;2023-11-21T15:36:54;8.30;99.90
22249;DHT22;67538;52.180;5.646;2023-11-21T15:39:20;8.30;99.90
22249;DHT22;67538;52.180;5.646;2023-11-21T15:41:51;8.20;99.90
22249;DHT22;67538;52.180;5.646;2023-11-21T15:44:18;8.20;99.90
22249;DHT22;67538;52.180;5.646;2023-11-21T15:46:45;8.10;99.90
22249;DHT22;67538;52.180;5.646;2023-11-21T15:49:15;8.10;99.90
22249;DHT22;67538;52.180;5.646;2023-11-21T15:51:44;8.00;99.90